sensor_id;sensor_type;location;lat;lon;timestamp;pressure;altitude;pressure_sealevel;temperature;humidity
75942;BME280;64622;46.220;19.878;2024-02-15T00:02:23;101290.53;;;0.83;100.00
75942;BME280;64622;46.220;19.878;2024-02-15T00:04:50;101285.97;;;0.86;100.00
75942;BME280;64622;46.220;19.878;2024-02-15T00:07:17;101276.63;;;0.98;100.00
75942;BME280;64622;46.220;19.878;2024-02-15T00:09:43;101287.19;;;1.15;100.00
75942;BME280;64622;46.220;19.878;2024-02-15T00:12:10;101291.47;;;1.34;100.00
75942;BME280;64622;46.220;19.878;2024-02-15T00:14:37;101291.06;;;1.59;100.00
75942;BME280;64622;46.220;19.878;2024-02-15T00:17:04;101281.47;;;1.58;100.00
75942;BME280;64622;46.220;19.878;2024-02-15T00:19:31;101289.69;;;1.69;100.00
75942;BME280;64622;46.220;19.878;2024-02-15T00:21:58;101288.03;;;1.66;100.00
75942;BME280;64622;46.220;19.878;2024-02-15T00:24:24;101290.00;;;1.63;100.00
75942;BME280;64622;46.220;19.878;2024-02-15T00:26:51;101290.53;;;1.69;100.00
75942;BME280;64622;46.220;19.878;2024-02-15T00:29:18;101288.59;;;1.73;100.00
75942;BME280;64622;46.220;19.878;2024-02-15T00:31:44;101284.41;;;1.86;100.00
75942;BME280;64622;46.220;19.878;2024-02-15T00:34:11;101279.59;;;1.77;100.00
75942;BME280;64622;46.220;19.878;2024-02-15T00:36:37;101273.44;;;1.76;100.00
75942;BME280;64622;46.220;19.878;2024-02-15T00:39:04;101291.31;;;1.88;100.00
75942;BME280;64622;46.220;19.878;2024-02-15T00:41:32;101286.12;;;2.02;100.00
75942;BME280;64622;46.220;19.878;2024-02-15T00:43:59;101298.37;;;2.20;100.00
75942;BME280;64622;46.220;19.878;2024-02-15T00:46:26;101274.09;;;2.29;100.00
75942;BME280;64622;46.220;19.878;2024-02-15T00:48:55;101284.06;;;2.40;100.00
75942;BME280;64622;46.220;19.878;2024-02-15T00:51:23;101279.72;;;2.39;100.00
75942;BME280;64622;46.220;19.878;2024-02-15T00:53:49;101266.38;;;2.42;100.00
75942;BME280;64622;46.220;19.878;2024-02-15T00:56:16;101275.41;;;2.69;100.00
75942;BME280;64622;46.220;19.878;2024-02-15T00:58:43;101264.31;;;2.78;100.00
75942;BME280;64622;46.220;19.878;2024-02-15T01:01:10;101264.56;;;2.89;100.00
75942;BME280;64622;46.220;19.878;2024-02-15T01:03:37;101259.00;;;2.93;100.00
75942;BME280;64622;46.220;19.878;2024-02-15T01:06:04;101253.13;;;2.88;100.00
75942;BME280;64622;46.220;19.878;2024-02-15T01:08:31;101259.41;;;3.01;100.00
75942;BME280;64622;46.220;19.878;2024-02-15T01:10:59;101264.00;;;3.13;100.00
75942;BME280;64622;46.220;19.878;2024-02-15T01:13:25;101247.16;;;3.00;100.00
75942;BME280;64622;46.220;19.878;2024-02-15T01:15:52;101247.22;;;2.99;100.00
75942;BME280;64622;46.220;19.878;2024-02-15T01:18:19;101258.75;;;2.98;100.00
75942;BME280;64622;46.220;19.878;2024-02-15T01:20:45;101257.56;;;2.88;100.00
75942;BME280;64622;46.220;19.878;2024-02-15T01:23:12;101262.50;;;2.94;100.00
75942;BME280;64622;46.220;19.878;2024-02-15T01:25:39;101253.91;;;2.90;100.00
75942;BME280;64622;46.220;19.878;2024-02-15T01:28:06;101255.84;;;3.02;100.00
75942;BME280;64622;46.220;19.878;2024-02-15T01:30:32;101255.03;;;3.16;100.00
75942;BME280;64622;46.220;19.878;2024-02-15T01:32:59;101253.59;;;3.10;100.00
75942;BME280;64622;46.220;19.878;2024-02-15T01:35:27;101246.34;;;3.14;100.00
75942;BME280;64622;46.220;19.878;2024-02-15T01:37:53;101247.37;;;3.11;100.00
75942;BME280;64622;46.220;19.878;2024-02-15T01:40:20;101247.09;;;3.16;100.00
75942;BME280;64622;46.220;19.878;2024-02-15T01:42:46;101245.31;;;3.16;100.00
75942;BME280;64622;46.220;19.878;2024-02-15T01:45:16;101240.31;;;3.12;100.00
75942;BME280;64622;46.220;19.878;2024-02-15T01:47:43;101235.94;;;3.11;100.00
75942;BME280;64622;46.220;19.878;2024-02-15T01:50:11;101247.47;;;3.10;100.00
75942;BME280;64622;46.220;19.878;2024-02-15T01:52:40;101240.37;;;3.10;100.00
75942;BME280;64622;46.220;19.878;2024-02-15T01:55:09;101243.97;;;3.09;100.00
75942;BME280;64622;46.220;19.878;2024-02-15T01:57:36;101244.44;;;3.16;100.00
75942;BME280;64622;46.220;19.878;2024-02-15T02:00:07;101248.47;;;3.23;100.00
75942;BME280;64622;46.220;19.878;2024-02-15T02:02:38;101251.91;;;3.09;100.00
75942;BME280;64622;46.220;19.878;2024-02-15T02:05:06;101251.06;;;2.93;100.00
75942;BME280;64622;46.220;19.878;2024-02-15T02:07:32;101238.41;;;2.84;100.00
75942;BME280;64622;46.220;19.878;2024-02-15T02:09:59;101245.12;;;2.74;100.00
75942;BME280;64622;46.220;19.878;2024-02-15T02:12:27;101242.25;;;2.48;100.00
75942;BME280;64622;46.220;19.878;2024-02-15T02:14:54;101248.28;;;2.34;100.00
75942;BME280;64622;46.220;19.878;2024-02-15T02:17:20;101237.69;;;2.19;100.00
75942;BME280;64622;46.220;19.878;2024-02-15T02:19:47;101236.00;;;2.18;100.00
75942;BME280;64622;46.220;19.878;2024-02-15T02:22:17;101237.13;;;2.29;100.00
75942;BME280;64622;46.220;19.878;2024-02-15T02:25:05;101246.69;;;2.32;100.00
75942;BME280;64622;46.220;19.878;2024-02-15T02:27:33;101234.41;;;2.31;100.00
75942;BME280;64622;46.220;19.878;2024-02-15T02:29:59;101248.72;;;2.27;100.00
75942;BME280;64622;46.220;19.878;2024-02-15T02:32:26;101242.31;;;2.15;100.00
75942;BME280;64622;46.220;19.878;2024-02-15T02:34:53;101256.94;;;2.05;100.00
75942;BME280;64622;46.220;19.878;2024-02-15T02:37:24;101261.94;;;2.10;100.00
75942;BME280;64622;46.220;19.878;2024-02-15T02:39:50;101264.44;;;2.13;100.00
75942;BME280;64622;46.220;19.878;2024-02-15T02:42:18;101254.37;;;2.04;100.00
75942;BME280;64622;46.220;19.878;2024-02-15T02:44:44;101254.25;;;1.90;100.00
75942;BME280;64622;46.220;19.878;2024-02-15T02:47:11;101256.59;;;1.79;100.00
75942;BME280;64622;46.220;19.878;2024-02-15T02:49:38;101258.88;;;1.69;100.00
75942;BME280;64622;46.220;19.878;2024-02-15T02:52:05;101259.41;;;1.76;100.00
75942;BME280;64622;46.220;19.878;2024-02-15T02:54:31;101259.31;;;1.77;100.00
75942;BME280;64622;46.220;19.878;2024-02-15T02:57:00;101265.53;;;1.76;100.00
75942;BME280;64622;46.220;19.878;2024-02-15T02:59:26;101259.03;;;1.83;100.00
75942;BME280;64622;46.220;19.878;2024-02-15T03:01:52;101256.47;;;1.65;100.00
75942;BME280;64622;46.220;19.878;2024-02-15T03:04:23;101254.84;;;1.62;100.00
75942;BME280;64622;46.220;19.878;2024-02-15T03:06:49;101264.59;;;1.77;100.00
75942;BME280;64622;46.220;19.878;2024-02-15T03:09:17;101253.59;;;1.69;100.00
75942;BME280;64622;46.220;19.878;2024-02-15T03:11:44;101256.84;;;1.74;100.00
75942;BME280;64622;46.220;19.878;2024-02-15T03:14:11;101259.63;;;1.71;100.00
75942;BME280;64622;46.220;19.878;2024-02-15T03:16:38;101260.81;;;1.66;100.00
75942;BME280;64622;46.220;19.878;2024-02-15T03:19:06;101266.50;;;1.58;100.00
75942;BME280;64622;46.220;19.878;2024-02-15T03:21:35;101266.41;;;1.43;100.00
75942;BME280;64622;46.220;19.878;2024-02-15T03:24:02;101270.94;;;1.41;100.00
75942;BME280;64622;46.220;19.878;2024-02-15T03:26:30;101258.91;;;1.35;100.00
75942;BME280;64622;46.220;19.878;2024-02-15T03:29:06;101266.94;;;1.32;100.00
75942;BME280;64622;46.220;19.878;2024-02-15T03:31:36;101270.00;;;1.42;100.00
75942;BME280;64622;46.220;19.878;2024-02-15T03:34:05;101263.53;;;1.47;100.00
75942;BME280;64622;46.220;19.878;2024-02-15T03:36:32;101269.56;;;1.66;100.00
75942;BME280;64622;46.220;19.878;2024-02-15T03:39:00;101266.78;;;1.69;100.00
75942;BME280;64622;46.220;19.878;2024-02-15T03:41:27;101268.34;;;1.73;100.00
75942;BME280;64622;46.220;19.878;2024-02-15T03:43:57;101268.25;;;1.75;100.00
75942;BME280;64622;46.220;19.878;2024-02-15T03:46:26;101270.66;;;1.79;100.00
75942;BME280;64622;46.220;19.878;2024-02-15T03:48:53;101260.44;;;1.73;100.00
75942;BME280;64622;46.220;19.878;2024-02-15T03:51:20;101267.75;;;1.84;100.00
75942;BME280;64622;46.220;19.878;2024-02-15T03:53:50;101259.94;;;1.82;100.00
75942;BME280;64622;46.220;19.878;2024-02-15T03:56:18;101259.03;;;1.99;100.00
75942;BME280;64622;46.220;19.878;2024-02-15T03:58:47;101258.62;;;2.06;100.00
75942;BME280;64622;46.220;19.878;2024-02-15T04:01:14;101254.50;;;2.18;100.00
75942;BME280;64622;46.220;19.878;2024-02-15T04:03:41;101256.12;;;2.36;100.00
75942;BME280;64622;46.220;19.878;2024-02-15T04:06:08;101249.00;;;2.53;100.00
75942;BME280;64622;46.220;19.878;2024-02-15T04:08:38;101260.91;;;2.60;100.00
75942;BME280;64622;46.220;19.878;2024-02-15T04:11:05;101253.38;;;2.68;100.00
75942;BME280;64622;46.220;19.878;2024-02-15T04:13:34;101255.00;;;2.71;100.00
75942;BME280;64622;46.220;19.878;2024-02-15T04:16:00;101244.97;;;2.62;100.00
75942;BME280;64622;46.220;19.878;2024-02-15T04:18:27;101255.00;;;2.71;100.00
75942;BME280;64622;46.220;19.878;2024-02-15T04:20:59;101233.63;;;2.75;100.00
75942;BME280;64622;46.220;19.878;2024-02-15T04:23:25;101244.72;;;2.66;100.00
75942;BME280;64622;46.220;19.878;2024-02-15T04:25:52;101244.59;;;2.83;100.00
75942;BME280;64622;46.220;19.878;2024-02-15T04:28:20;101238.78;;;2.92;100.00
75942;BME280;64622;46.220;19.878;2024-02-15T04:30:46;101251.06;;;2.93;100.00
75942;BME280;64622;46.220;19.878;2024-02-15T04:33:15;101246.31;;;2.84;100.00
75942;BME280;64622;46.220;19.878;2024-02-15T04:35:42;101231.28;;;2.85;100.00
75942;BME280;64622;46.220;19.878;2024-02-15T04:38:10;101234.88;;;2.84;100.00
75942;BME280;64622;46.220;19.878;2024-02-15T04:40:36;101236.50;;;2.86;100.00
75942;BME280;64622;46.220;19.878;2024-02-15T04:43:05;101237.37;;;2.87;100.00
75942;BME280;64622;46.220;19.878;2024-02-15T04:45:32;101245.38;;;2.85;100.00
75942;BME280;64622;46.220;19.878;2024-02-15T04:47:59;101251.84;;;2.95;100.00
75942;BME280;64622;46.220;19.878;2024-02-15T04:50:29;101247.22;;;2.99;100.00
75942;BME280;64622;46.220;19.878;2024-02-15T04:52:55;101244.69;;;3.27;100.00
75942;BME280;64622;46.220;19.878;2024-02-15T04:55:22;101246.53;;;3.40;100.00
75942;BME280;64622;46.220;19.878;2024-02-15T04:57:49;101239.25;;;3.44;100.00
75942;BME280;64622;46.220;19.878;2024-02-15T05:00:21;101247.72;;;3.35;100.00
75942;BME280;64622;46.220;19.878;2024-02-15T05:02:49;101244.06;;;3.37;100.00
75942;BME280;64622;46.220;19.878;2024-02-15T05:05:16;101239.34;;;3.42;100.00
75942;BME280;64622;46.220;19.878;2024-02-15T05:07:42;101248.03;;;3.15;100.00
75942;BME280;64622;46.220;19.878;2024-02-15T05:10:09;101252.94;;;3.36;100.00
75942;BME280;64622;46.220;19.878;2024-02-15T05:12:39;101259.94;;;3.37;100.00
75942;BME280;64622;46.220;19.878;2024-02-15T05:15:06;101266.34;;;3.33;100.00
75942;BME280;64622;46.220;19.878;2024-02-15T05:17:38;101267.13;;;3.35;100.00
75942;BME280;64622;46.220;19.878;2024-02-15T05:20:10;101265.09;;;3.25;100.00
75942;BME280;64622;46.220;19.878;2024-02-15T05:22:41;101266.25;;;2.90;100.00
75942;BME280;64622;46.220;19.878;2024-02-15T05:25:12;101264.97;;;2.97;100.00
75942;BME280;64622;46.220;19.878;2024-02-15T05:27:38;101260.75;;;3.08;100.00
75942;BME280;64622;46.220;19.878;2024-02-15T05:30:06;101261.75;;;2.92;100.00
75942;BME280;64622;46.220;19.878;2024-02-15T05:32:34;101269.03;;;3.18;100.00
75942;BME280;64622;46.220;19.878;2024-02-15T05:35:09;101268.00;;;3.20;100.00
75942;BME280;64622;46.220;19.878;2024-02-15T05:37:37;101266.59;;;2.99;100.00
75942;BME280;64622;46.220;19.878;2024-02-15T05:40:05;101282.25;;;3.18;100.00
75942;BME280;64622;46.220;19.878;2024-02-15T05:42:31;101273.97;;;3.24;100.00
75942;BME280;64622;46.220;19.878;2024-02-15T05:47:54;101284.53;;;3.39;100.00
75942;BME280;64622;46.220;19.878;2024-02-15T05:50:21;101289.22;;;3.34;100.00
75942;BME280;64622;46.220;19.878;2024-02-15T05:52:49;101291.97;;;3.33;100.00
75942;BME280;64622;46.220;19.878;2024-02-15T05:55:18;101291.72;;;3.51;100.00
75942;BME280;64622;46.220;19.878;2024-02-15T05:57:45;101304.28;;;3.48;100.00
75942;BME280;64622;46.220;19.878;2024-02-15T06:00:12;101297.59;;;3.56;100.00
75942;BME280;64622;46.220;19.878;2024-02-15T06:02:39;101300.12;;;3.44;100.00
75942;BME280;64622;46.220;19.878;2024-02-15T06:05:06;101303.66;;;3.58;100.00
75942;BME280;64622;46.220;19.878;2024-02-15T06:07:33;101307.03;;;3.46;100.00
75942;BME280;64622;46.220;19.878;2024-02-15T06:10:00;101310.53;;;3.47;100.00
75942;BME280;64622;46.220;19.878;2024-02-15T06:12:30;101317.03;;;3.41;100.00
75942;BME280;64622;46.220;19.878;2024-02-15T06:14:58;101303.12;;;3.38;100.00
75942;BME280;64622;46.220;19.878;2024-02-15T06:17:25;101315.50;;;3.37;100.00
75942;BME280;64622;46.220;19.878;2024-02-15T06:19:51;101314.09;;;3.46;100.00
75942;BME280;64622;46.220;19.878;2024-02-15T06:22:17;101303.84;;;3.55;100.00
75942;BME280;64622;46.220;19.878;2024-02-15T06:24:44;101309.59;;;3.48;100.00
75942;BME280;64622;46.220;19.878;2024-02-15T06:27:10;101315.63;;;3.50;100.00
75942;BME280;64622;46.220;19.878;2024-02-15T06:29:37;101313.81;;;3.80;100.00
75942;BME280;64622;46.220;19.878;2024-02-15T06:32:27;101306.16;;;3.75;100.00
75942;BME280;64622;46.220;19.878;2024-02-15T06:35:15;101306.19;;;4.03;100.00
75942;BME280;64622;46.220;19.878;2024-02-15T06:38:00;101314.16;;;4.31;100.00
75942;BME280;64622;46.220;19.878;2024-02-15T06:40:46;101301.28;;;4.53;100.00
75942;BME280;64622;46.220;19.878;2024-02-15T06:43:13;101312.66;;;4.55;100.00
75942;BME280;64622;46.220;19.878;2024-02-15T06:45:39;101308.66;;;5.03;100.00
75942;BME280;64622;46.220;19.878;2024-02-15T06:48:11;101306.72;;;5.45;100.00
75942;BME280;64622;46.220;19.878;2024-02-15T06:50:39;101309.66;;;5.41;100.00
75942;BME280;64622;46.220;19.878;2024-02-15T06:53:05;101313.06;;;5.94;100.00
75942;BME280;64622;46.220;19.878;2024-02-15T06:55:32;101317.84;;;5.89;100.00
75942;BME280;64622;46.220;19.878;2024-02-15T06:57:59;101325.66;;;5.66;100.00
75942;BME280;64622;46.220;19.878;2024-02-15T07:00:25;101323.12;;;5.38;100.00
75942;BME280;64622;46.220;19.878;2024-02-15T07:02:52;101330.94;;;5.93;100.00
75942;BME280;64622;46.220;19.878;2024-02-15T07:05:19;101332.56;;;6.20;100.00
75942;BME280;64622;46.220;19.878;2024-02-15T07:07:47;101330.62;;;5.97;100.00
75942;BME280;64622;46.220;19.878;2024-02-15T07:10:13;101327.75;;;6.00;100.00
75942;BME280;64622;46.220;19.878;2024-02-15T07:12:43;101336.06;;;5.69;100.00
75942;BME280;64622;46.220;19.878;2024-02-15T07:15:10;101339.09;;;5.89;100.00
75942;BME280;64622;46.220;19.878;2024-02-15T07:17:37;101345.63;;;5.98;100.00
75942;BME280;64622;46.220;19.878;2024-02-15T07:20:04;101340.34;;;6.23;100.00
75942;BME280;64622;46.220;19.878;2024-02-15T07:22:31;101332.13;;;6.13;100.00
75942;BME280;64622;46.220;19.878;2024-02-15T07:25:01;101336.72;;;6.37;100.00
75942;BME280;64622;46.220;19.878;2024-02-15T07:27:28;101342.84;;;6.49;100.00
75942;BME280;64622;46.220;19.878;2024-02-15T07:29:55;101335.81;;;6.61;100.00
75942;BME280;64622;46.220;19.878;2024-02-15T07:32:22;101332.97;;;7.00;100.00
75942;BME280;64622;46.220;19.878;2024-02-15T07:34:49;101332.94;;;6.77;100.00
75942;BME280;64622;46.220;19.878;2024-02-15T07:37:16;101328.28;;;7.03;100.00
75942;BME280;64622;46.220;19.878;2024-02-15T07:39:42;101325.41;;;6.58;100.00
75942;BME280;64622;46.220;19.878;2024-02-15T07:42:09;101316.00;;;6.78;100.00
75942;BME280;64622;46.220;19.878;2024-02-15T07:44:36;101319.97;;;6.59;100.00
75942;BME280;64622;46.220;19.878;2024-02-15T07:47:03;101320.28;;;6.68;100.00
75942;BME280;64622;46.220;19.878;2024-02-15T07:49:31;101325.31;;;7.08;100.00
75942;BME280;64622;46.220;19.878;2024-02-15T07:51:59;101322.19;;;7.14;100.00
75942;BME280;64622;46.220;19.878;2024-02-15T07:54:25;101330.94;;;7.03;100.00
75942;BME280;64622;46.220;19.878;2024-02-15T07:56:52;101319.94;;;7.21;100.00
75942;BME280;64622;46.220;19.878;2024-02-15T07:59:19;101317.38;;;7.19;100.00
75942;BME280;64622;46.220;19.878;2024-02-15T08:01:46;101322.19;;;7.14;100.00
75942;BME280;64622;46.220;19.878;2024-02-15T08:04:14;101318.16;;;7.56;100.00
75942;BME280;64622;46.220;19.878;2024-02-15T08:06:41;101319.47;;;7.27;100.00
75942;BME280;64622;46.220;19.878;2024-02-15T08:09:08;101321.87;;;7.29;100.00
75942;BME280;64622;46.220;19.878;2024-02-15T08:11:40;101312.03;;;7.43;100.00
75942;BME280;64622;46.220;19.878;2024-02-15T08:14:06;101310.56;;;7.38;100.00
75942;BME280;64622;46.220;19.878;2024-02-15T08:16:37;101305.13;;;7.74;100.00
75942;BME280;64622;46.220;19.878;2024-02-15T08:19:04;101315.81;;;7.51;100.00
75942;BME280;64622;46.220;19.878;2024-02-15T08:21:32;101315.63;;;8.10;100.00
75942;BME280;64622;46.220;19.878;2024-02-15T08:24:03;101310.56;;;8.07;100.00
75942;BME280;64622;46.220;19.878;2024-02-15T08:26:33;101325.31;;;8.46;100.00
75942;BME280;64622;46.220;19.878;2024-02-15T08:29:02;101322.41;;;8.71;100.00
75942;BME280;64622;46.220;19.878;2024-02-15T08:31:29;101329.69;;;8.80;100.00
75942;BME280;64622;46.220;19.878;2024-02-15T08:33:59;101337.88;;;8.33;100.00
75942;BME280;64622;46.220;19.878;2024-02-15T08:36:27;101328.94;;;8.45;100.00
75942;BME280;64622;46.220;19.878;2024-02-15T08:38:53;101338.53;;;8.37;100.00
75942;BME280;64622;46.220;19.878;2024-02-15T08:41:20;101343.97;;;8.35;100.00
75942;BME280;64622;46.220;19.878;2024-02-15T08:43:49;101334.28;;;8.56;100.00
75942;BME280;64622;46.220;19.878;2024-02-15T08:46:16;101335.25;;;8.66;100.00
75942;BME280;64622;46.220;19.878;2024-02-15T08:48:43;101337.91;;;8.77;100.00
75942;BME280;64622;46.220;19.878;2024-02-15T08:51:10;101333.38;;;9.22;100.00
75942;BME280;64622;46.220;19.878;2024-02-15T08:53:37;101336.28;;;9.19;100.00
75942;BME280;64622;46.220;19.878;2024-02-15T08:56:04;101341.41;;;9.00;100.00
75942;BME280;64622;46.220;19.878;2024-02-15T08:58:31;101337.16;;;8.97;100.00
75942;BME280;64622;46.220;19.878;2024-02-15T09:00:58;101334.75;;;9.05;100.00
75942;BME280;64622;46.220;19.878;2024-02-15T09:03:25;101333.69;;;9.28;100.00
75942;BME280;64622;46.220;19.878;2024-02-15T09:05:51;101337.34;;;9.27;100.00
75942;BME280;64622;46.220;19.878;2024-02-15T09:08:18;101337.88;;;9.21;99.73
75942;BME280;64622;46.220;19.878;2024-02-15T09:10:49;101339.66;;;9.32;99.67
75942;BME280;64622;46.220;19.878;2024-02-15T09:13:16;101346.97;;;9.61;98.64
75942;BME280;64622;46.220;19.878;2024-02-15T09:15:42;101335.13;;;9.43;98.37
75942;BME280;64622;46.220;19.878;2024-02-15T09:18:10;101344.69;;;9.57;97.17
75942;BME280;64622;46.220;19.878;2024-02-15T09:20:36;101342.50;;;9.82;96.16
75942;BME280;64622;46.220;19.878;2024-02-15T09:23:06;101340.47;;;9.75;95.03
75942;BME280;64622;46.220;19.878;2024-02-15T09:25:38;101339.88;;;9.71;94.75
75942;BME280;64622;46.220;19.878;2024-02-15T09:28:05;101342.50;;;9.82;93.96
75942;BME280;64622;46.220;19.878;2024-02-15T09:30:31;101336.28;;;10.13;93.15
75942;BME280;64622;46.220;19.878;2024-02-15T09:32:58;101334.87;;;10.39;92.91
75942;BME280;64622;46.220;19.878;2024-02-15T09:35:24;101336.62;;;10.20;91.53
75942;BME280;64622;46.220;19.878;2024-02-15T09:37:52;101344.72;;;10.59;90.60
75942;BME280;64622;46.220;19.878;2024-02-15T09:40:19;101343.31;;;10.35;90.28
75942;BME280;64622;46.220;19.878;2024-02-15T09:42:47;101337.38;;;9.59;92.07
75942;BME280;64622;46.220;19.878;2024-02-15T09:45:14;101348.50;;;10.06;92.60
75942;BME280;64622;46.220;19.878;2024-02-15T09:47:42;101344.69;;;10.29;91.94
75942;BME280;64622;46.220;19.878;2024-02-15T09:50:16;101344.34;;;10.02;91.18
75942;BME280;64622;46.220;19.878;2024-02-15T09:52:53;101338.34;;;9.89;91.01
75942;BME280;64622;46.220;19.878;2024-02-15T09:55:24;101343.00;;;10.49;89.99
75942;BME280;64622;46.220;19.878;2024-02-15T09:57:52;101337.63;;;10.49;90.32
75942;BME280;64622;46.220;19.878;2024-02-15T10:00:18;101338.56;;;10.38;88.94
75942;BME280;64622;46.220;19.878;2024-02-15T10:02:50;101340.25;;;10.39;89.35
75942;BME280;64622;46.220;19.878;2024-02-15T10:05:19;101344.91;;;10.17;90.33
75942;BME280;64622;46.220;19.878;2024-02-15T10:07:46;101340.22;;;10.60;89.94
75942;BME280;64622;46.220;19.878;2024-02-15T10:10:21;101348.56;;;10.36;90.69
75942;BME280;64622;46.220;19.878;2024-02-15T10:12:49;101346.13;;;10.54;88.81
75942;BME280;64622;46.220;19.878;2024-02-15T10:17:58;101340.41;;;10.68;89.88
75942;BME280;64622;46.220;19.878;2024-02-15T10:20:25;101329.06;;;10.85;88.03
75942;BME280;64622;46.220;19.878;2024-02-15T10:22:53;101321.63;;;10.58;87.94
75942;BME280;64622;46.220;19.878;2024-02-15T10:25:35;101318.66;;;11.01;87.83
75942;BME280;64622;46.220;19.878;2024-02-15T10:28:06;101327.88;;;11.08;85.87
75942;BME280;64622;46.220;19.878;2024-02-15T10:30:34;101323.53;;;11.26;84.37
75942;BME280;64622;46.220;19.878;2024-02-15T10:33:02;101316.03;;;11.20;84.48
75942;BME280;64622;46.220;19.878;2024-02-15T10:35:29;101313.22;;;11.21;84.44
75942;BME280;64622;46.220;19.878;2024-02-15T10:38:14;101306.34;;;11.47;84.33
75942;BME280;64622;46.220;19.878;2024-02-15T10:40:42;101308.66;;;11.80;82.62
75942;BME280;64622;46.220;19.878;2024-02-15T10:43:10;101310.84;;;11.28;83.59
75942;BME280;64622;46.220;19.878;2024-02-15T10:45:40;101316.34;;;11.26;84.09
75942;BME280;64622;46.220;19.878;2024-02-15T10:48:08;101312.75;;;11.75;83.66
75942;BME280;64622;46.220;19.878;2024-02-15T10:50:35;101310.72;;;12.15;81.52
75942;BME280;64622;46.220;19.878;2024-02-15T10:53:21;101315.34;;;11.37;82.72
75942;BME280;64622;46.220;19.878;2024-02-15T10:58:19;101300.91;;;11.68;84.77
75942;BME280;64622;46.220;19.878;2024-02-15T11:00:47;101303.84;;;11.65;84.72
75942;BME280;64622;46.220;19.878;2024-02-15T11:03:24;101291.84;;;12.53;81.53
75942;BME280;64622;46.220;19.878;2024-02-15T11:05:52;101304.56;;;11.95;82.99
75942;BME280;64622;46.220;19.878;2024-02-15T11:08:22;101285.75;;;11.86;83.36
75942;BME280;64622;46.220;19.878;2024-02-15T11:10:48;101284.78;;;11.77;83.39
75942;BME280;64622;46.220;19.878;2024-02-15T11:13:15;101287.31;;;11.98;83.37
75942;BME280;64622;46.220;19.878;2024-02-15T11:15:46;101291.09;;;12.05;81.11
75942;BME280;64622;46.220;19.878;2024-02-15T11:21:18;101281.78;;;11.99;82.60
75942;BME280;64622;46.220;19.878;2024-02-15T11:24:28;101284.87;;;12.14;82.40
75942;BME280;64622;46.220;19.878;2024-02-15T11:26:59;101280.25;;;11.97;82.39
75942;BME280;64622;46.220;19.878;2024-02-15T11:29:51;101277.34;;;12.36;78.83
75942;BME280;64622;46.220;19.878;2024-02-15T11:35:04;101267.00;;;12.68;76.48
75942;BME280;64622;46.220;19.878;2024-02-15T11:40:17;101253.34;;;12.89;75.30
75942;BME280;64622;46.220;19.878;2024-02-15T11:42:45;101261.97;;;12.83;76.43
75942;BME280;64622;46.220;19.878;2024-02-15T11:45:12;101263.69;;;13.11;74.36
75942;BME280;64622;46.220;19.878;2024-02-15T11:47:40;101259.78;;;14.44;70.47
75942;BME280;64622;46.220;19.878;2024-02-15T11:50:10;101260.09;;;13.20;71.71
75942;BME280;64622;46.220;19.878;2024-02-15T11:52:41;101256.78;;;13.08;72.03
75942;BME280;64622;46.220;19.878;2024-02-15T11:55:10;101257.88;;;13.33;70.38
75942;BME280;64622;46.220;19.878;2024-02-15T11:57:41;101258.59;;;13.08;70.53
75942;BME280;64622;46.220;19.878;2024-02-15T12:00:27;101260.03;;;13.47;68.86
75942;BME280;64622;46.220;19.878;2024-02-15T12:03:14;101264.56;;;13.29;70.01
75942;BME280;64622;46.220;19.878;2024-02-15T12:06:00;101253.63;;;13.30;69.77
75942;BME280;64622;46.220;19.878;2024-02-15T12:08:47;101250.75;;;13.59;68.76
75942;BME280;64622;46.220;19.878;2024-02-15T12:11:32;101246.81;;;13.18;68.80
75942;BME280;64622;46.220;19.878;2024-02-15T12:14:18;101248.13;;;12.87;68.88
75942;BME280;64622;46.220;19.878;2024-02-15T12:17:06;101233.75;;;13.23;68.22
75942;BME280;64622;46.220;19.878;2024-02-15T12:19:53;101241.25;;;13.02;68.22
75942;BME280;64622;46.220;19.878;2024-02-15T12:22:35;101241.47;;;12.82;66.93
75942;BME280;64622;46.220;19.878;2024-02-15T12:25:02;101235.19;;;13.00;66.32
75942;BME280;64622;46.220;19.878;2024-02-15T12:27:38;101233.87;;;13.04;67.23
75942;BME280;64622;46.220;19.878;2024-02-15T12:30:06;101231.94;;;12.97;66.87
75942;BME280;64622;46.220;19.878;2024-02-15T12:32:35;101229.25;;;12.97;68.24
75942;BME280;64622;46.220;19.878;2024-02-15T12:35:14;101238.88;;;12.99;67.09
75942;BME280;64622;46.220;19.878;2024-02-15T12:37:46;101231.34;;;13.03;66.20
75942;BME280;64622;46.220;19.878;2024-02-15T12:40:16;101225.09;;;13.90;64.81
75942;BME280;64622;46.220;19.878;2024-02-15T12:42:44;101232.97;;;13.48;64.39
75942;BME280;64622;46.220;19.878;2024-02-15T12:45:18;101220.31;;;13.23;64.85
75942;BME280;64622;46.220;19.878;2024-02-15T12:47:50;101216.09;;;13.38;62.63
75942;BME280;64622;46.220;19.878;2024-02-15T12:50:19;101220.50;;;12.95;65.79
75942;BME280;64622;46.220;19.878;2024-02-15T12:52:48;101212.09;;;13.07;65.88
75942;BME280;64622;46.220;19.878;2024-02-15T12:55:17;101216.31;;;13.27;64.60
75942;BME280;64622;46.220;19.878;2024-02-15T12:57:50;101210.09;;;13.27;63.56
75942;BME280;64622;46.220;19.878;2024-02-15T13:00:19;101215.88;;;12.87;64.99
75942;BME280;64622;46.220;19.878;2024-02-15T13:02:48;101212.47;;;13.12;64.68
75942;BME280;64622;46.220;19.878;2024-02-15T13:05:16;101211.84;;;13.01;64.24
75942;BME280;64622;46.220;19.878;2024-02-15T13:07:49;101205.75;;;13.69;62.34